sensor_id;sensor_type;location;lat;lon;timestamp;temperature;humidity
51337;DHT22;37421;51.176;17.196;2022-09-09T00:04:29;18.10;99.90
51337;DHT22;37421;51.176;17.196;2022-09-09T00:09:46;18.10;99.90
51337;DHT22;37421;51.176;17.196;2022-09-09T00:12:15;18.10;99.90
51337;DHT22;37421;51.176;17.196;2022-09-09T00:15:05;18.00;99.90
51337;DHT22;37421;51.176;17.196;2022-09-09T00:20:03;18.00;99.90
51337;DHT22;37421;51.176;17.196;2022-09-09T00:22:35;18.00;99.90
51337;DHT22;37421;51.176;17.196;2022-09-09T00:25:12;18.00;99.90
51337;DHT22;37421;51.176;17.196;2022-09-09T00:27:46;18.00;99.90
51337;DHT22;37421;51.176;17.196;2022-09-09T00:30:14;17.90;99.90
51337;DHT22;37421;51.176;17.196;2022-09-09T00:32:41;17.90;99.90
51337;DHT22;37421;51.176;17.196;2022-09-09T00:37:35;17.60;99.90
51337;DHT22;37421;51.176;17.196;2022-09-09T00:40:02;17.50;99.90
51337;DHT22;37421;51.176;17.196;2022-09-09T00:42:54;17.60;99.90
51337;DHT22;37421;51.176;17.196;2022-09-09T00:47:58;17.60;99.90
51337;DHT22;37421;51.176;17.196;2022-09-09T00:58:26;17.60;99.90
51337;DHT22;37421;51.176;17.196;2022-09-09T01:00:56;17.60;99.90
51337;DHT22;37421;51.176;17.196;2022-09-09T01:03:43;17.50;99.90
51337;DHT22;37421;51.176;17.196;2022-09-09T01:06:12;17.50;99.90
51337;DHT22;37421;51.176;17.196;2022-09-09T01:11:24;17.50;99.90
51337;DHT22;37421;51.176;17.196;2022-09-09T01:16:35;17.50;99.90
51337;DHT22;37421;51.176;17.196;2022-09-09T01:19:02;17.40;99.90
51337;DHT22;37421;51.176;17.196;2022-09-09T01:24:14;17.40;99.90
51337;DHT22;37421;51.176;17.196;2022-09-09T01:26:44;17.40;99.90
51337;DHT22;37421;51.176;17.196;2022-09-09T01:29:15;17.30;99.90
51337;DHT22;37421;51.176;17.196;2022-09-09T01:31:42;17.40;99.90
51337;DHT22;37421;51.176;17.196;2022-09-09T01:34:12;17.30;99.90
51337;DHT22;37421;51.176;17.196;2022-09-09T01:39:03;20.00;99.90
51337;DHT22;37421;51.176;17.196;2022-09-09T01:41:29;21.30;99.90
51337;DHT22;37421;51.176;17.196;2022-09-09T01:43:55;21.50;99.90
51337;DHT22;37421;51.176;17.196;2022-09-09T01:46:21;21.50;99.90
51337;DHT22;37421;51.176;17.196;2022-09-09T01:48:48;21.50;99.90
51337;DHT22;37421;51.176;17.196;2022-09-09T01:51:13;21.50;99.90
51337;DHT22;37421;51.176;17.196;2022-09-09T01:53:39;21.50;99.90
51337;DHT22;37421;51.176;17.196;2022-09-09T02:03:56;21.50;99.90
51337;DHT22;37421;51.176;17.196;2022-09-09T02:06:27;21.50;99.90
51337;DHT22;37421;51.176;17.196;2022-09-09T02:08:55;21.40;99.90
51337;DHT22;37421;51.176;17.196;2022-09-09T02:11:22;21.50;99.90
51337;DHT22;37421;51.176;17.196;2022-09-09T02:13:48;21.40;99.90
51337;DHT22;37421;51.176;17.196;2022-09-09T02:21:20;21.40;99.90
51337;DHT22;37421;51.176;17.196;2022-09-09T02:26:51;21.40;99.90
51337;DHT22;37421;51.176;17.196;2022-09-09T02:29:20;21.40;99.90
51337;DHT22;37421;51.176;17.196;2022-09-09T02:31:48;21.40;99.90
51337;DHT22;37421;51.176;17.196;2022-09-09T02:34:15;21.40;99.90
51337;DHT22;37421;51.176;17.196;2022-09-09T02:36:42;21.40;99.90
51337;DHT22;37421;51.176;17.196;2022-09-09T02:51:37;21.30;99.90
51337;DHT22;37421;51.176;17.196;2022-09-09T02:56:32;21.30;99.90
51337;DHT22;37421;51.176;17.196;2022-09-09T02:59:03;21.30;99.90
51337;DHT22;37421;51.176;17.196;2022-09-09T03:01:29;21.30;99.90
51337;DHT22;37421;51.176;17.196;2022-09-09T03:03:55;21.30;99.90
51337;DHT22;37421;51.176;17.196;2022-09-09T03:09:24;21.40;99.90
51337;DHT22;37421;51.176;17.196;2022-09-09T03:11:51;21.30;99.90
51337;DHT22;37421;51.176;17.196;2022-09-09T03:53:20;21.30;99.90
51337;DHT22;37421;51.176;17.196;2022-09-09T03:55:47;21.30;99.90
51337;DHT22;37421;51.176;17.196;2022-09-09T03:58:14;21.30;99.90
51337;DHT22;37421;51.176;17.196;2022-09-09T04:00:40;21.30;99.90
51337;DHT22;37421;51.176;17.196;2022-09-09T04:03:10;21.30;99.90
51337;DHT22;37421;51.176;17.196;2022-09-09T04:05:36;21.20;99.90
51337;DHT22;37421;51.176;17.196;2022-09-09T04:10:58;21.20;99.90
51337;DHT22;37421;51.176;17.196;2022-09-09T04:13:24;21.20;99.90
51337;DHT22;37421;51.176;17.196;2022-09-09T04:15:51;21.20;99.90
51337;DHT22;37421;51.176;17.196;2022-09-09T04:18:17;21.20;99.90
51337;DHT22;37421;51.176;17.196;2022-09-09T04:21:02;21.20;99.90
51337;DHT22;37421;51.176;17.196;2022-09-09T04:23:29;21.20;99.90
51337;DHT22;37421;51.176;17.196;2022-09-09T04:25:56;21.20;99.90
51337;DHT22;37421;51.176;17.196;2022-09-09T04:28:25;21.30;99.90
51337;DHT22;37421;51.176;17.196;2022-09-09T04:30:51;21.30;99.90
51337;DHT22;37421;51.176;17.196;2022-09-09T04:33:20;21.20;99.90
51337;DHT22;37421;51.176;17.196;2022-09-09T04:35:47;21.20;99.90
51337;DHT22;37421;51.176;17.196;2022-09-09T04:38:13;21.20;99.90
51337;DHT22;37421;51.176;17.196;2022-09-09T04:40:50;21.30;99.90
51337;DHT22;37421;51.176;17.196;2022-09-09T04:43:17;21.30;99.90
51337;DHT22;37421;51.176;17.196;2022-09-09T04:45:49;21.30;99.90
51337;DHT22;37421;51.176;17.196;2022-09-09T04:48:16;21.30;99.90
51337;DHT22;37421;51.176;17.196;2022-09-09T04:50:42;21.30;99.90
51337;DHT22;37421;51.176;17.196;2022-09-09T04:53:08;21.30;99.90
51337;DHT22;37421;51.176;17.196;2022-09-09T04:55:34;21.30;99.90
51337;DHT22;37421;51.176;17.196;2022-09-09T04:58:09;21.30;99.90
51337;DHT22;37421;51.176;17.196;2022-09-09T05:00:35;21.30;99.90
51337;DHT22;37421;51.176;17.196;2022-09-09T05:08:45;21.40;99.90
51337;DHT22;37421;51.176;17.196;2022-09-09T05:11:23;21.40;99.90
51337;DHT22;37421;51.176;17.196;2022-09-09T05:13:49;21.40;99.90
51337;DHT22;37421;51.176;17.196;2022-09-09T05:16:19;21.40;99.90
51337;DHT22;37421;51.176;17.196;2022-09-09T05:18:49;21.40;99.90
51337;DHT22;37421;51.176;17.196;2022-09-09T05:21:19;21.40;99.90
51337;DHT22;37421;51.176;17.196;2022-09-09T05:23:45;21.40;99.90
51337;DHT22;37421;51.176;17.196;2022-09-09T05:26:15;21.50;99.90
51337;DHT22;37421;51.176;17.196;2022-09-09T05:28:41;21.50;99.90
51337;DHT22;37421;51.176;17.196;2022-09-09T05:31:26;21.50;99.90
51337;DHT22;37421;51.176;17.196;2022-09-09T05:33:53;21.50;99.90
51337;DHT22;37421;51.176;17.196;2022-09-09T05:36:22;21.50;99.90
51337;DHT22;37421;51.176;17.196;2022-09-09T05:38:48;21.50;99.90
51337;DHT22;37421;51.176;17.196;2022-09-09T05:41:19;21.60;99.90
51337;DHT22;37421;51.176;17.196;2022-09-09T05:43:45;19.20;99.90
51337;DHT22;37421;51.176;17.196;2022-09-09T05:46:19;17.60;99.90
51337;DHT22;37421;51.176;17.196;2022-09-09T05:48:45;17.40;99.90
51337;DHT22;37421;51.176;17.196;2022-09-09T05:54:34;17.50;99.90
51337;DHT22;37421;51.176;17.196;2022-09-09T05:57:02;17.60;99.90
51337;DHT22;37421;51.176;17.196;2022-09-09T05:59:28;17.60;99.90
51337;DHT22;37421;51.176;17.196;2022-09-09T06:01:54;17.70;99.90
51337;DHT22;37421;51.176;17.196;2022-09-09T06:04:25;17.80;99.90
51337;DHT22;37421;51.176;17.196;2022-09-09T06:06:50;17.90;99.90
51337;DHT22;37421;51.176;17.196;2022-09-09T06:09:19;18.00;99.90
51337;DHT22;37421;51.176;17.196;2022-09-09T06:11:47;18.10;99.90
51337;DHT22;37421;51.176;17.196;2022-09-09T06:14:12;18.20;99.90
51337;DHT22;37421;51.176;17.196;2022-09-09T06:16:47;18.10;99.90
51337;DHT22;37421;51.176;17.196;2022-09-09T06:19:13;18.10;99.90
51337;DHT22;37421;51.176;17.196;2022-09-09T06:21:39;18.20;99.90
51337;DHT22;37421;51.176;17.196;2022-09-09T06:24:06;18.30;99.90
51337;DHT22;37421;51.176;17.196;2022-09-09T06:26:38;18.40;99.90
51337;DHT22;37421;51.176;17.196;2022-09-09T06:29:07;18.40;99.90
51337;DHT22;37421;51.176;17.196;2022-09-09T06:31:40;18.40;99.90
51337;DHT22;37421;51.176;17.196;2022-09-09T06:34:09;18.50;99.90
51337;DHT22;37421;51.176;17.196;2022-09-09T06:36:37;18.60;99.90
51337;DHT22;37421;51.176;17.196;2022-09-09T06:39:04;18.70;99.90
51337;DHT22;37421;51.176;17.196;2022-09-09T06:41:30;18.80;99.90
51337;DHT22;37421;51.176;17.196;2022-09-09T06:43:59;18.80;99.90
51337;DHT22;37421;51.176;17.196;2022-09-09T06:46:27;18.80;99.90
51337;DHT22;37421;51.176;17.196;2022-09-09T06:48:53;19.10;99.90
51337;DHT22;37421;51.176;17.196;2022-09-09T06:51:25;19.10;99.90
51337;DHT22;37421;51.176;17.196;2022-09-09T06:53:52;19.10;99.90
51337;DHT22;37421;51.176;17.196;2022-09-09T06:56:22;19.20;99.90
51337;DHT22;37421;51.176;17.196;2022-09-09T06:58:48;19.10;99.90
51337;DHT22;37421;51.176;17.196;2022-09-09T07:01:17;19.10;99.90
51337;DHT22;37421;51.176;17.196;2022-09-09T07:03:48;19.00;99.90
51337;DHT22;37421;51.176;17.196;2022-09-09T07:06:16;19.00;99.90
51337;DHT22;37421;51.176;17.196;2022-09-09T07:08:43;19.20;99.90
51337;DHT22;37421;51.176;17.196;2022-09-09T07:11:08;19.30;99.90
51337;DHT22;37421;51.176;17.196;2022-09-09T07:13:34;19.50;99.90
51337;DHT22;37421;51.176;17.196;2022-09-09T07:16:09;19.70;99.90
51337;DHT22;37421;51.176;17.196;2022-09-09T07:18:35;19.80;99.90
51337;DHT22;37421;51.176;17.196;2022-09-09T07:21:01;20.10;99.90
51337;DHT22;37421;51.176;17.196;2022-09-09T07:23:27;19.90;99.90
51337;DHT22;37421;51.176;17.196;2022-09-09T07:25:53;19.80;99.90
51337;DHT22;37421;51.176;17.196;2022-09-09T07:28:19;19.70;99.90
51337;DHT22;37421;51.176;17.196;2022-09-09T07:30:58;19.90;99.90
51337;DHT22;37421;51.176;17.196;2022-09-09T07:33:24;19.90;99.90
51337;DHT22;37421;51.176;17.196;2022-09-09T07:35:51;20.00;99.90
51337;DHT22;37421;51.176;17.196;2022-09-09T07:38:17;20.20;99.90
51337;DHT22;37421;51.176;17.196;2022-09-09T07:40:43;20.30;99.90
51337;DHT22;37421;51.176;17.196;2022-09-09T07:43:09;20.40;99.90
51337;DHT22;37421;51.176;17.196;2022-09-09T07:45:35;20.30;99.90
51337;DHT22;37421;51.176;17.196;2022-09-09T07:48:01;20.20;99.90
51337;DHT22;37421;51.176;17.196;2022-09-09T07:50:30;20.20;99.90
51337;DHT22;37421;51.176;17.196;2022-09-09T07:52:56;20.40;99.90
51337;DHT22;37421;51.176;17.196;2022-09-09T07:55:22;20.40;99.90
51337;DHT22;37421;51.176;17.196;2022-09-09T07:57:51;20.60;99.90
51337;DHT22;37421;51.176;17.196;2022-09-09T08:00:19;20.70;99.90
51337;DHT22;37421;51.176;17.196;2022-09-09T08:02:47;20.70;99.90
51337;DHT22;37421;51.176;17.196;2022-09-09T08:05:13;20.60;99.90
51337;DHT22;37421;51.176;17.196;2022-09-09T08:07:40;20.80;99.90
51337;DHT22;37421;51.176;17.196;2022-09-09T08:10:06;20.90;99.90
51337;DHT22;37421;51.176;17.196;2022-09-09T08:12:32;21.00;99.90
51337;DHT22;37421;51.176;17.196;2022-09-09T08:14:57;21.10;99.90
51337;DHT22;37421;51.176;17.196;2022-09-09T08:17:23;21.10;99.90
51337;DHT22;37421;51.176;17.196;2022-09-09T08:19:49;21.10;99.90
51337;DHT22;37421;51.176;17.196;2022-09-09T08:22:15;20.90;99.90
51337;DHT22;37421;51.176;17.196;2022-09-09T08:24:40;20.90;99.90
51337;DHT22;37421;51.176;17.196;2022-09-09T08:27:06;20.90;99.90
51337;DHT22;37421;51.176;17.196;2022-09-09T08:29:32;21.00;99.90
51337;DHT22;37421;51.176;17.196;2022-09-09T08:31:58;21.10;99.90
51337;DHT22;37421;51.176;17.196;2022-09-09T08:34:27;21.20;99.90
51337;DHT22;37421;51.176;17.196;2022-09-09T08:36:55;21.20;99.90
51337;DHT22;37421;51.176;17.196;2022-09-09T08:39:26;21.20;99.90
51337;DHT22;37421;51.176;17.196;2022-09-09T08:44:21;21.30;99.90
51337;DHT22;37421;51.176;17.196;2022-09-09T08:47:06;21.30;99.90
51337;DHT22;37421;51.176;17.196;2022-09-09T08:58:49;21.70;99.90
51337;DHT22;37421;51.176;17.196;2022-09-09T09:01:25;21.90;99.90
51337;DHT22;37421;51.176;17.196;2022-09-09T09:09:38;21.60;99.90
51337;DHT22;37421;51.176;17.196;2022-09-09T09:12:27;21.70;99.90
51337;DHT22;37421;51.176;17.196;2022-09-09T09:15:00;21.80;99.90
51337;DHT22;37421;51.176;17.196;2022-09-09T09:17:29;21.80;99.90
51337;DHT22;37421;51.176;17.196;2022-09-09T09:20:12;21.80;99.90
51337;DHT22;37421;51.176;17.196;2022-09-09T09:22:55;22.10;99.90
51337;DHT22;37421;51.176;17.196;2022-09-09T09:25:33;22.10;99.90
51337;DHT22;37421;51.176;17.196;2022-09-09T09:31:14;22.10;99.90
51337;DHT22;37421;51.176;17.196;2022-09-09T09:36:12;22.30;99.90
51337;DHT22;37421;51.176;17.196;2022-09-09T09:38:50;22.40;99.90
51337;DHT22;37421;51.176;17.196;2022-09-09T09:41:16;22.30;99.90
51337;DHT22;37421;51.176;17.196;2022-09-09T09:43:53;22.20;99.90
51337;DHT22;37421;51.176;17.196;2022-09-09T09:46:19;22.20;99.90
51337;DHT22;37421;51.176;17.196;2022-09-09T09:48:55;22.20;99.90
51337;DHT22;37421;51.176;17.196;2022-09-09T09:51:21;22.40;99.90
51337;DHT22;37421;51.176;17.196;2022-09-09T09:53:48;22.50;99.90
51337;DHT22;37421;51.176;17.196;2022-09-09T09:56:14;22.50;99.90
51337;DHT22;37421;51.176;17.196;2022-09-09T10:01:28;22.60;99.90
51337;DHT22;37421;51.176;17.196;2022-09-09T10:04:13;22.50;99.90
51337;DHT22;37421;51.176;17.196;2022-09-09T10:06:40;22.50;99.90
51337;DHT22;37421;51.176;17.196;2022-09-09T10:09:25;22.40;99.90
51337;DHT22;37421;51.176;17.196;2022-09-09T10:14:21;22.50;99.90
51337;DHT22;37421;51.176;17.196;2022-09-09T10:16:52;22.40;99.90
51337;DHT22;37421;51.176;17.196;2022-09-09T10:19:33;22.40;99.90
51337;DHT22;37421;51.176;17.196;2022-09-09T10:22:21;22.50;99.90
51337;DHT22;37421;51.176;17.196;2022-09-09T10:30:14;22.60;99.90
51337;DHT22;37421;51.176;17.196;2022-09-09T10:32:45;22.50;99.90
51337;DHT22;37421;51.176;17.196;2022-09-09T10:40:34;22.80;99.90
51337;DHT22;37421;51.176;17.196;2022-09-09T10:43:07;22.70;99.90
51337;DHT22;37421;51.176;17.196;2022-09-09T10:45:41;22.90;99.90
51337;DHT22;37421;51.176;17.196;2022-09-09T10:48:21;22.90;99.90
51337;DHT22;37421;51.176;17.196;2022-09-09T10:50:53;22.90;99.90
51337;DHT22;37421;51.176;17.196;2022-09-09T10:56:08;22.90;99.90
51337;DHT22;37421;51.176;17.196;2022-09-09T10:58:40;22.90;99.90
51337;DHT22;37421;51.176;17.196;2022-09-09T11:01:42;22.70;99.90
51337;DHT22;37421;51.176;17.196;2022-09-09T11:04:10;22.70;99.90
51337;DHT22;37421;51.176;17.196;2022-09-09T11:06:41;23.00;99.90
51337;DHT22;37421;51.176;17.196;2022-09-09T11:09:09;23.00;99.90
51337;DHT22;37421;51.176;17.196;2022-09-09T11:11:39;23.10;99.90
51337;DHT22;37421;51.176;17.196;2022-09-09T11:14:12;23.20;99.90
51337;DHT22;37421;51.176;17.196;2022-09-09T11:21:48;23.50;99.90
51337;DHT22;37421;51.176;17.196;2022-09-09T11:27:06;23.20;99.90
51337;DHT22;37421;51.176;17.196;2022-09-09T11:29:44;23.10;99.90
51337;DHT22;37421;51.176;17.196;2022-09-09T11:35:16;22.90;99.90
51337;DHT22;37421;51.176;17.196;2022-09-09T11:43:02;22.90;99.90
51337;DHT22;37421;51.176;17.196;2022-09-09T11:45:29;22.80;99.90
51337;DHT22;37421;51.176;17.196;2022-09-09T11:48:04;22.90;99.90
51337;DHT22;37421;51.176;17.196;2022-09-09T11:50:36;22.90;99.90
51337;DHT22;37421;51.176;17.196;2022-09-09T11:53:19;23.00;99.90
51337;DHT22;37421;51.176;17.196;2022-09-09T11:55:59;23.00;99.90
51337;DHT22;37421;51.176;17.196;2022-09-09T11:58:29;23.10;99.90
51337;DHT22;37421;51.176;17.196;2022-09-09T12:00:58;23.20;99.90
51337;DHT22;37421;51.176;17.196;2022-09-09T12:03:34;23.20;99.90
51337;DHT22;37421;51.176;17.196;2022-09-09T12:06:08;23.30;99.90
51337;DHT22;37421;51.176;17.196;2022-09-09T12:08:34;23.30;99.90
51337;DHT22;37421;51.176;17.196;2022-09-09T12:11:02;23.30;99.90
51337;DHT22;37421;51.176;17.196;2022-09-09T12:13:31;23.20;99.90
51337;DHT22;37421;51.176;17.196;2022-09-09T12:15:57;23.20;99.90
51337;DHT22;37421;51.176;17.196;2022-09-09T12:18:25;23.10;99.90
51337;DHT22;37421;51.176;17.196;2022-09-09T12:21:28;23.20;99.90
51337;DHT22;37421;51.176;17.196;2022-09-09T12:23:57;23.20;99.90
51337;DHT22;37421;51.176;17.196;2022-09-09T12:32:10;23.20;99.90
51337;DHT22;37421;51.176;17.196;2022-09-09T12:38:03;23.30;99.90
51337;DHT22;37421;51.176;17.196;2022-09-09T12:39:59;23.40;99.90
51337;DHT22;37421;51.176;17.196;2022-09-09T12:42:25;23.40;99.90
51337;DHT22;37421;51.176;17.196;2022-09-09T12:44:58;23.40;99.90
51337;DHT22;37421;51.176;17.196;2022-09-09T12:49:59;23.50;99.90
51337;DHT22;37421;51.176;17.196;2022-09-09T12:52:44;23.40;99.90
51337;DHT22;37421;51.176;17.196;2022-09-09T12:55:35;23.50;99.90
51337;DHT22;37421;51.176;17.196;2022-09-09T13:01:05;23.50;99.90
51337;DHT22;37421;51.176;17.196;2022-09-09T13:03:32;23.50;99.90
51337;DHT22;37421;51.176;17.196;2022-09-09T13:06:10;23.50;99.90
51337;DHT22;37421;51.176;17.196;2022-09-09T13:08:37;23.40;99.90
51337;DHT22;37421;51.176;17.196;2022-09-09T13:14:05;23.70;99.90
51337;DHT22;37421;51.176;17.196;2022-09-09T13:16:32;23.80;99.90
51337;DHT22;37421;51.176;17.196;2022-09-09T13:21:58;23.50;99.90
51337;DHT22;37421;51.176;17.196;2022-09-09T13:24:31;23.60;99.90
51337;DHT22;37421;51.176;17.196;2022-09-09T13:26:58;23.50;99.90
51337;DHT22;37421;51.176;17.196;2022-09-09T13:29:27;23.50;99.90
51337;DHT22;37421;51.176;17.196;2022-09-09T13:31:53;23.60;99.90
51337;DHT22;37421;51.176;17.196;2022-09-09T13:34:32;23.90;99.90
51337;DHT22;37421;51.176;17.196;2022-09-09T13:37:02;24.00;99.90
51337;DHT22;37421;51.176;17.196;2022-09-09T13:39:32;24.00;99.90
51337;DHT22;37421;51.176;17.196;2022-09-09T13:41:59;24.00;99.90
51337;DHT22;37421;51.176;17.196;2022-09-09T13:44:28;24.00;99.90
51337;DHT22;37421;51.176;17.196;2022-09-09T13:47:05;23.90;99.90
51337;DHT22;37421;51.176;17.196;2022-09-09T13:49:31;23.80;99.90
51337;DHT22;37421;51.176;17.196;2022-09-09T13:52:05;23.60;99.90
51337;DHT22;37421;51.176;17.196;2022-09-09T13:54:34;23.50;99.90
51337;DHT22;37421;51.176;17.196;2022-09-09T13:57:00;23.40;99.90
51337;DHT22;37421;51.176;17.196;2022-09-09T14:02:22;23.50;99.90
51337;DHT22;37421;51.176;17.196;2022-09-09T14:04:48;23.70;99.90
51337;DHT22;37421;51.176;17.196;2022-09-09T14:07:16;23.80;99.90
51337;DHT22;37421;51.176;17.196;2022-09-09T14:09:42;23.80;99.90
51337;DHT22;37421;51.176;17.196;2022-09-09T14:12:09;23.70;99.90
51337;DHT22;37421;51.176;17.196;2022-09-09T14:14:36;23.60;99.90
51337;DHT22;37421;51.176;17.196;2022-09-09T14:17:02;23.50;99.90
51337;DHT22;37421;51.176;17.196;2022-09-09T14:19:28;23.50;99.90
51337;DHT22;37421;51.176;17.196;2022-09-09T14:21:54;23.60;99.90
51337;DHT22;37421;51.176;17.196;2022-09-09T14:24:20;23.60;99.90
51337;DHT22;37421;51.176;17.196;2022-09-09T14:26:46;23.60;99.90
51337;DHT22;37421;51.176;17.196;2022-09-09T14:29:12;23.60;99.90
51337;DHT22;37421;51.176;17.196;2022-09-09T14:31:38;23.50;99.90
51337;DHT22;37421;51.176;17.196;2022-09-09T14:34:04;23.60;99.90
51337;DHT22;37421;51.176;17.196;2022-09-09T14:36:30;23.60;99.90
51337;DHT22;37421;51.176;17.196;2022-09-09T14:38:56;23.50;99.90
51337;DHT22;37421;51.176;17.196;2022-09-09T14:41:23;23.50;99.90
51337;DHT22;37421;51.176;17.196;2022-09-09T14:43:49;23.50;99.90
51337;DHT22;37421;51.176;17.196;2022-09-09T14:46:16;23.60;99.90
51337;DHT22;37421;51.176;17.196;2022-09-09T14:48:42;23.50;99.90
51337;DHT22;37421;51.176;17.196;2022-09-09T14:51:13;23.50;99.90
51337;DHT22;37421;51.176;17.196;2022-09-09T14:53:40;23.60;99.90
51337;DHT22;37421;51.176;17.196;2022-09-09T14:56:10;23.70;99.90
51337;DHT22;37421;51.176;17.196;2022-09-09T14:58:36;23.80;99.90
51337;DHT22;37421;51.176;17.196;2022-09-09T15:01:10;23.80;99.90
51337;DHT22;37421;51.176;17.196;2022-09-09T15:03:36;23.70;99.90
51337;DHT22;37421;51.176;17.196;2022-09-09T15:06:12;23.70;99.90
51337;DHT22;37421;51.176;17.196;2022-09-09T15:08:40;23.70;99.90
51337;DHT22;37421;51.176;17.196;2022-09-09T15:11:06;23.70;99.90
51337;DHT22;37421;51.176;17.196;2022-09-09T15:13:33;23.70;99.90
51337;DHT22;37421;51.176;17.196;2022-09-09T15:18:31;23.50;99.90
51337;DHT22;37421;51.176;17.196;2022-09-09T15:20:59;23.50;99.90
51337;DHT22;37421;51.176;17.196;2022-09-09T15:23:25;23.50;99.90
51337;DHT22;37421;51.176;17.196;2022-09-09T15:25:54;23.40;99.90
51337;DHT22;37421;51.176;17.196;2022-09-09T15:28:22;23.40;99.90
51337;DHT22;37421;51.176;17.196;2022-09-09T15:31:12;23.50;99.90
51337;DHT22;37421;51.176;17.196;2022-09-09T15:33:48;23.40;99.90
51337;DHT22;37421;51.176;17.196;2022-09-09T15:36:14;23.30;99.90
51337;DHT22;37421;51.176;17.196;2022-09-09T15:38:43;23.30;99.90
51337;DHT22;37421;51.176;17.196;2022-09-09T15:41:09;23.20;99.90
51337;DHT22;37421;51.176;17.196;2022-09-09T15:43:38;23.20;99.90
51337;DHT22;37421;51.176;17.196;2022-09-09T15:46:38;23.20;99.90
51337;DHT22;37421;51.176;17.196;2022-09-09T15:49:19;23.20;99.90
51337;DHT22;37421;51.176;17.196;2022-09-09T15:51:55;23.20;99.90
51337;DHT22;37421;51.176;17.196;2022-09-09T15:54:23;23.10;99.90
51337;DHT22;37421;51.176;17.196;2022-09-09T15:56:51;23.20;99.90
51337;DHT22;37421;51.176;17.196;2022-09-09T15:59:35;23.10;99.90
51337;DHT22;37421;51.176;17.196;2022-09-09T16:02:00;23.00;99.90
51337;DHT22;37421;51.176;17.196;2022-09-09T16:04:27;23.00;99.90
51337;DHT22;37421;51.176;17.196;2022-09-09T16:06:59;23.00;99.90
51337;DHT22;37421;51.176;17.196;2022-09-09T16:09:25;23.00;99.90
51337;DHT22;37421;51.176;17.196;2022-09-09T16:11:52;22.90;99.90
51337;DHT22;37421;51.176;17.196;2022-09-09T16:14:19;22.90;99.90
51337;DHT22;37421;51.176;17.196;2022-09-09T16:16:45;22.90;99.90
51337;DHT22;37421;51.176;17.196;2022-09-09T16:19:11;22.80;99.90
51337;DHT22;37421;51.176;17.196;2022-09-09T16:21:45;22.80;99.90
51337;DHT22;37421;51.176;17.196;2022-09-09T16:24:12;22.80;99.90
51337;DHT22;37421;51.176;17.196;2022-09-09T16:26:38;22.80;99.90
51337;DHT22;37421;51.176;17.196;2022-09-09T16:29:05;22.80;99.90
51337;DHT22;37421;51.176;17.196;2022-09-09T16:31:30;22.70;99.90
51337;DHT22;37421;51.176;17.196;2022-09-09T16:33:59;22.70;99.90
51337;DHT22;37421;51.176;17.196;2022-09-09T16:36:26;22.60;99.90
51337;DHT22;37421;51.176;17.196;2022-09-09T16:38:53;22.50;99.90
51337;DHT22;37421;51.176;17.196;2022-09-09T16:41:19;22.50;99.90
51337;DHT22;37421;51.176;17.196;2022-09-09T16:43:45;22.50;99.90
51337;DHT22;37421;51.176;17.196;2022-09-09T16:48:41;22.40;99.90
51337;DHT22;37421;51.176;17.196;2022-09-09T16:51:09;22.30;99.90
51337;DHT22;37421;51.176;17.196;2022-09-09T16:53:36;22.30;99.90
51337;DHT22;37421;51.176;17.196;2022-09-09T16:56:05;22.40;99.90
51337;DHT22;37421;51.176;17.196;2022-09-09T16:58:31;22.60;99.90
51337;DHT22;37421;51.176;17.196;2022-09-09T17:01:00;22.70;99.90
51337;DHT22;37421;51.176;17.196;2022-09-09T17:03:38;22.70;99.90
51337;DHT22;37421;51.176;17.196;2022-09-09T17:06:13;22.60;99.90
51337;DHT22;37421;51.176;17.196;2022-09-09T17:08:39;22.40;99.90
51337;DHT22;37421;51.176;17.196;2022-09-09T17:11:17;22.20;99.90
51337;DHT22;37421;51.176;17.196;2022-09-09T17:13:46;22.10;99.90
51337;DHT22;37421;51.176;17.196;2022-09-09T17:16:14;22.00;99.90
51337;DHT22;37421;51.176;17.196;2022-09-09T17:18:47;22.10;99.90
51337;DHT22;37421;51.176;17.196;2022-09-09T17:21:15;22.10;99.90
51337;DHT22;37421;51.176;17.196;2022-09-09T17:23:42;22.10;99.90
51337;DHT22;37421;51.176;17.196;2022-09-09T17:26:09;21.80;99.90
51337;DHT22;37421;51.176;17.196;2022-09-09T17:28:35;21.60;99.90
51337;DHT22;37421;51.176;17.196;2022-09-09T17:31:01;21.40;99.90
51337;DHT22;37421;51.176;17.196;2022-09-09T17:33:30;21.40;99.90
51337;DHT22;37421;51.176;17.196;2022-09-09T17:35:57;21.40;99.90
51337;DHT22;37421;51.176;17.196;2022-09-09T17:38:24;21.20;99.90
51337;DHT22;37421;51.176;17.196;2022-09-09T17:40:59;21.20;99.90
51337;DHT22;37421;51.176;17.196;2022-09-09T17:43:26;21.10;99.90
51337;DHT22;37421;51.176;17.196;2022-09-09T17:45:52;21.10;99.90
51337;DHT22;37421;51.176;17.196;2022-09-09T17:48:17;21.10;99.90
51337;DHT22;37421;51.176;17.196;2022-09-09T17:50:43;21.10;99.90
51337;DHT22;37421;51.176;17.196;2022-09-09T17:53:09;21.10;99.90
51337;DHT22;37421;51.176;17.196;2022-09-09T17:55:34;21.10;99.90
51337;DHT22;37421;51.176;17.196;2022-09-09T17:58:00;21.10;99.90
51337;DHT22;37421;51.176;17.196;2022-09-09T18:00:26;21.00;99.90
51337;DHT22;37421;51.176;17.196;2022-09-09T18:02:52;21.10;99.90
51337;DHT22;37421;51.176;17.196;2022-09-09T18:05:19;21.00;99.90
51337;DHT22;37421;51.176;17.196;2022-09-09T18:07:46;21.00;99.90
51337;DHT22;37421;51.176;17.196;2022-09-09T18:10:13;20.90;99.90
51337;DHT22;37421;51.176;17.196;2022-09-09T18:12:39;20.90;99.90
51337;DHT22;37421;51.176;17.196;2022-09-09T18:15:05;20.90;99.90
51337;DHT22;37421;51.176;17.196;2022-09-09T18:17:31;20.90;99.90
51337;DHT22;37421;51.176;17.196;2022-09-09T18:19:57;20.90;99.90
51337;DHT22;37421;51.176;17.196;2022-09-09T18:22:23;20.80;99.90
51337;DHT22;37421;51.176;17.196;2022-09-09T18:24:50;20.80;99.90
51337;DHT22;37421;51.176;17.196;2022-09-09T18:27:16;20.80;99.90
51337;DHT22;37421;51.176;17.196;2022-09-09T18:29:42;20.80;99.90
51337;DHT22;37421;51.176;17.196;2022-09-09T18:32:08;20.70;99.90
51337;DHT22;37421;51.176;17.196;2022-09-09T18:34:51;20.70;99.90
51337;DHT22;37421;51.176;17.196;2022-09-09T18:37:17;20.70;99.90
51337;DHT22;37421;51.176;17.196;2022-09-09T18:39:43;20.60;99.90
51337;DHT22;37421;51.176;17.196;2022-09-09T18:42:09;20.60;99.90
51337;DHT22;37421;51.176;17.196;2022-09-09T18:44:36;20.60;99.90
51337;DHT22;37421;51.176;17.196;2022-09-09T18:47:02;20.60;99.90
51337;DHT22;37421;51.176;17.196;2022-09-09T18:49:28;20.50;99.90
51337;DHT22;37421;51.176;17.196;2022-09-09T18:51:54;20.50;99.90